Share

Arm, MS

3:20 AM CDT on April 25, 2014 (GMT -0500)
Stronghope (KMSWESSO2) Elev 269 ft | 31.72 °N, 90.24 °W | Change Station
Active Advisory: Flood Warning

Current weather conditions updated 19 seconds ago

Scattered Clouds
Scattered Clouds
69.5 °F
Feels Like 69.5 °F
N
0.0
Wind Variable Wind from North
Gusts 4.0 mph
Sunrise 6:20 AM
Sunset 7:35 PM
Moon Waning Crescent

Today is forecast to be Cooler than yesterday.

Pressure 29.92 in
Visibility 8.0 miles
Clouds Scattered Clouds 1600 ft
Dew Point 67 °F
Humidity 91%
Rainfall 0.00 in
Snow Depth Not available.
UV 0 out of 16
Pollen 8.00 out of 12
Air Quality Not available.
Flu Activity No Activity
METAR K1R7 250815Z AUTO 22004KT 8SM SCT016 19/18 A2992 RMK AO2

More Conditions Fewer Conditions

Pressure 29.92 in
Visibility 8.0 miles
Clouds Scattered Clouds 1600 ft
Dew Point 67 °F
Humidity 91%
Rainfall 0.00 in
Snow Depth Not available.
UV 0 out of 16
Pollen 8.00 out of 12
Air Quality Not available.
Flu Activity No Activity
METAR K1R7 250815Z AUTO 22004KT 8SM SCT016 19/18 A2992 RMK AO2

More Conditions Fewer Conditions

10-Day Weather Forecast

Almanac

Astronomy

Apr. 25, 2014 Rise Set
Actual Time 6:20 AM CDT 7:35 PM CDT
Civil Twilight 5:55 AM CDT 8:01 PM CDT
Nautical Twilight 5:24 AM CDT 8:31 PM CDT
Astronomical Twilight 4:53 AM CDT 9:03 PM CDT
Moon 3:53 AM CDT 4:11 PM CDT
Length of Visible Light 14h 06m
Length of Day
13h 15m
Tomorrow will be 1m 42s longer.
Waning Crescent, 18% of the Moon is Illuminated
Today
Waning Crescent
Apr 29
New
May 6
First Quarter
May 14
Full
May 21
Last Quarter

Today's Extremes

State Highs State Lows

Community

  • Deer in evening light
    Deer in evening light
  • Critter
    Critter
  • Jone Runs Falls
    Jone Runs Falls
  • Easter in Shenandoah National Park
    Easter in Shenandoah National Park
  • Sunset at Apalachicola Bay, Florida
    Sunset at Apalachicola Bay, Florida

WunderPhotos

Upload Photos

1,704,873 photos uploaded!

WunderBlogs® & News

Nearby

Snow Depth

Station Depth Elevation
No new snow has been reported.

Coastal Water Temperatures

Place Temperature
No Stations Reporting

Earthquake Activity

City Distance Mag. Time & Date
No recent earthquake activity has been reported nearby.
Minimum magnitude displayed is 2.5.

Nearby Weather Stations

Station Location Temp. Heat Index Dew Point Humidity Wind Precip. Elev Updated Type
Stronghope, Wesson, MS 69.5 °F - 67 °F 91% North  at  0.0 mph 0.00 in / hr 269 ft 3:19 AM CDT Rapid Fire
East Lincoln County MS, Brookhaven, MS 67.1 °F - 63 °F 86% West  at  1.6 mph 0.00 in / hr 394 ft 3:20 AM CDT Rapid Fire
Pastures, Woods, Rolling Hills, Columbia, MS 68.0 °F - 66 °F 94% SSW  at  1.7 mph - / hr 351 ft 3:13 AM CDT Normal
Downtown (Perkins Bldg), Brookhaven, MS 74.5 °F 76 °F 64 °F 69% South  at  0.0 mph 0.00 in / hr 473 ft 3:16 AM CDT Normal

Show More Stations Show Fewer Stations

What do you think?

We're not finished. Please let us know what you like, what you don't like, and what you are still missing.